sensor_id;sensor_type;location;lat;lon;timestamp;P1;durP1;ratioP1;P2;durP2;ratioP2
1400;SDS011;46518;48.842;8.926;2023-02-25T00:02:38;11.88;;;7.20;;
1400;SDS011;46518;48.842;8.926;2023-02-25T00:05:09;10.25;;;6.40;;
1400;SDS011;46518;48.842;8.926;2023-02-25T00:07:40;13.70;;;7.50;;
1400;SDS011;46518;48.842;8.926;2023-02-25T00:10:13;11.18;;;6.40;;
1400;SDS011;46518;48.842;8.926;2023-02-25T00:12:47;12.60;;;7.82;;
1400;SDS011;46518;48.842;8.926;2023-02-25T00:15:17;8.60;;;7.00;;
1400;SDS011;46518;48.842;8.926;2023-02-25T00:17:49;11.05;;;7.55;;
1400;SDS011;46518;48.842;8.926;2023-02-25T00:20:24;9.57;;;6.93;;
1400;SDS011;46518;48.842;8.926;2023-02-25T00:22:56;10.88;;;7.05;;
1400;SDS011;46518;48.842;8.926;2023-02-25T00:25:28;8.50;;;6.35;;
1400;SDS011;46518;48.842;8.926;2023-02-25T00:28:00;8.88;;;6.55;;
1400;SDS011;46518;48.842;8.926;2023-02-25T00:30:40;7.03;;;5.40;;
1400;SDS011;46518;48.842;8.926;2023-02-25T00:33:13;8.23;;;6.15;;
1400;SDS011;46518;48.842;8.926;2023-02-25T00:35:44;6.55;;;5.25;;
1400;SDS011;46518;48.842;8.926;2023-02-25T00:38:15;8.20;;;6.03;;
1400;SDS011;46518;48.842;8.926;2023-02-25T00:40:48;7.03;;;4.95;;
1400;SDS011;46518;48.842;8.926;2023-02-25T00:43:21;12.18;;;6.03;;
1400;SDS011;46518;48.842;8.926;2023-02-25T00:45:52;14.80;;;5.78;;
1400;SDS011;46518;48.842;8.926;2023-02-25T00:48:24;7.28;;;4.40;;
1400;SDS011;46518;48.842;8.926;2023-02-25T00:50:55;8.00;;;5.28;;
1400;SDS011;46518;48.842;8.926;2023-02-25T00:53:27;16.20;;;6.03;;
1400;SDS011;46518;48.842;8.926;2023-02-25T00:55:59;8.73;;;5.93;;
1400;SDS011;46518;48.842;8.926;2023-02-25T00:58:33;7.70;;;5.32;;
1400;SDS011;46518;48.842;8.926;2023-02-25T01:01:13;6.05;;;4.68;;
1400;SDS011;46518;48.842;8.926;2023-02-25T01:03:47;13.20;;;6.43;;
1400;SDS011;46518;48.842;8.926;2023-02-25T01:06:19;6.80;;;4.80;;
1400;SDS011;46518;48.842;8.926;2023-02-25T01:08:56;9.65;;;5.55;;
1400;SDS011;46518;48.842;8.926;2023-02-25T01:11:34;6.68;;;5.68;;
1400;SDS011;46518;48.842;8.926;2023-02-25T01:14:10;7.05;;;5.68;;
1400;SDS011;46518;48.842;8.926;2023-02-25T01:16:45;11.85;;;6.22;;
1400;SDS011;46518;48.842;8.926;2023-02-25T01:19:20;11.77;;;6.10;;
1400;SDS011;46518;48.842;8.926;2023-02-25T01:21:55;7.75;;;6.07;;
1400;SDS011;46518;48.842;8.926;2023-02-25T01:24:30;8.68;;;5.55;;
1400;SDS011;46518;48.842;8.926;2023-02-25T01:27:02;7.72;;;5.57;;
1400;SDS011;46518;48.842;8.926;2023-02-25T01:29:36;8.95;;;4.95;;
1400;SDS011;46518;48.842;8.926;2023-02-25T01:32:11;9.63;;;4.95;;
1400;SDS011;46518;48.842;8.926;2023-02-25T01:34:45;7.80;;;4.85;;
1400;SDS011;46518;48.842;8.926;2023-02-25T01:37:15;6.78;;;4.78;;
1400;SDS011;46518;48.842;8.926;2023-02-25T01:39:49;4.90;;;4.07;;
1400;SDS011;46518;48.842;8.926;2023-02-25T01:42:19;6.78;;;4.50;;
1400;SDS011;46518;48.842;8.926;2023-02-25T01:48:04;6.90;;;4.88;;
1400;SDS011;46518;48.842;8.926;2023-02-25T01:50:43;12.18;;;6.35;;
1400;SDS011;46518;48.842;8.926;2023-02-25T01:53:20;6.03;;;4.70;;
1400;SDS011;46518;48.842;8.926;2023-02-25T01:55:58;7.43;;;4.70;;
1400;SDS011;46518;48.842;8.926;2023-02-25T01:58:30;6.43;;;4.07;;
1400;SDS011;46518;48.842;8.926;2023-02-25T02:01:02;8.82;;;4.60;;
1400;SDS011;46518;48.842;8.926;2023-02-25T02:03:37;6.25;;;5.30;;
1400;SDS011;46518;48.842;8.926;2023-02-25T02:06:09;8.85;;;4.95;;
1400;SDS011;46518;48.842;8.926;2023-02-25T02:08:46;9.50;;;5.97;;
1400;SDS011;46518;48.842;8.926;2023-02-25T02:11:17;8.82;;;5.55;;
1400;SDS011;46518;48.842;8.926;2023-02-25T02:13:50;10.20;;;4.95;;
1400;SDS011;46518;48.842;8.926;2023-02-25T02:16:29;7.15;;;4.80;;
1400;SDS011;46518;48.842;8.926;2023-02-25T02:19:30;6.07;;;4.00;;
1400;SDS011;46518;48.842;8.926;2023-02-25T02:22:14;5.60;;;3.40;;
1400;SDS011;46518;48.842;8.926;2023-02-25T02:24:56;12.68;;;3.80;;
1400;SDS011;46518;48.842;8.926;2023-02-25T02:27:52;4.95;;;4.30;;
1400;SDS011;46518;48.842;8.926;2023-02-25T02:30:36;4.38;;;3.60;;
1400;SDS011;46518;48.842;8.926;2023-02-25T02:33:21;7.63;;;3.40;;
1400;SDS011;46518;48.842;8.926;2023-02-25T02:36:00;3.65;;;3.35;;
1400;SDS011;46518;48.842;8.926;2023-02-25T02:38:38;4.68;;;3.45;;
1400;SDS011;46518;48.842;8.926;2023-02-25T02:41:22;6.47;;;3.42;;
1400;SDS011;46518;48.842;8.926;2023-02-25T02:44:01;8.52;;;4.32;;
1400;SDS011;46518;48.842;8.926;2023-02-25T02:46:38;4.57;;;3.60;;
1400;SDS011;46518;48.842;8.926;2023-02-25T02:49:16;3.28;;;2.95;;
1400;SDS011;46518;48.842;8.926;2023-02-25T02:51:57;3.95;;;3.20;;
1400;SDS011;46518;48.842;8.926;2023-02-25T02:54:32;7.20;;;3.47;;
1400;SDS011;46518;48.842;8.926;2023-02-25T02:57:06;5.28;;;3.45;;
1400;SDS011;46518;48.842;8.926;2023-02-25T02:59:37;8.43;;;4.05;;
1400;SDS011;46518;48.842;8.926;2023-02-25T03:02:10;5.90;;;2.97;;
1400;SDS011;46518;48.842;8.926;2023-02-25T03:04:44;4.05;;;2.30;;
1400;SDS011;46518;48.842;8.926;2023-02-25T03:07:15;3.97;;;2.25;;
1400;SDS011;46518;48.842;8.926;2023-02-25T03:09:46;5.45;;;3.00;;
1400;SDS011;46518;48.842;8.926;2023-02-25T03:12:17;3.65;;;2.10;;
1400;SDS011;46518;48.842;8.926;2023-02-25T03:14:46;5.38;;;2.42;;
1400;SDS011;46518;48.842;8.926;2023-02-25T03:17:15;3.72;;;2.40;;
1400;SDS011;46518;48.842;8.926;2023-02-25T03:19:49;4.53;;;2.35;;
1400;SDS011;46518;48.842;8.926;2023-02-25T03:22:24;2.45;;;2.15;;
1400;SDS011;46518;48.842;8.926;2023-02-25T03:24:57;4.07;;;2.53;;
1400;SDS011;46518;48.842;8.926;2023-02-25T03:27:33;2.70;;;2.20;;
1400;SDS011;46518;48.842;8.926;2023-02-25T03:30:05;8.25;;;2.70;;
1400;SDS011;46518;48.842;8.926;2023-02-25T03:32:41;4.38;;;2.40;;
1400;SDS011;46518;48.842;8.926;2023-02-25T03:35:13;2.67;;;2.28;;
1400;SDS011;46518;48.842;8.926;2023-02-25T03:37:45;3.28;;;3.08;;
1400;SDS011;46518;48.842;8.926;2023-02-25T03:40:18;5.88;;;2.53;;
1400;SDS011;46518;48.842;8.926;2023-02-25T03:42:49;3.60;;;2.40;;
1400;SDS011;46518;48.842;8.926;2023-02-25T03:45:22;3.85;;;2.80;;
1400;SDS011;46518;48.842;8.926;2023-02-25T03:47:51;4.75;;;2.55;;
1400;SDS011;46518;48.842;8.926;2023-02-25T03:50:22;3.03;;;2.72;;
1400;SDS011;46518;48.842;8.926;2023-02-25T03:52:58;6.65;;;3.40;;
1400;SDS011;46518;48.842;8.926;2023-02-25T03:56:02;2.33;;;1.73;;
1400;SDS011;46518;48.842;8.926;2023-02-25T03:58:35;4.28;;;2.55;;
1400;SDS011;46518;48.842;8.926;2023-02-25T04:01:05;6.03;;;2.72;;
1400;SDS011;46518;48.842;8.926;2023-02-25T04:03:36;6.68;;;2.35;;
1400;SDS011;46518;48.842;8.926;2023-02-25T04:06:10;6.03;;;2.78;;
1400;SDS011;46518;48.842;8.926;2023-02-25T04:08:39;4.15;;;2.67;;
1400;SDS011;46518;48.842;8.926;2023-02-25T04:35:20;2.70;;;1.88;;
1400;SDS011;46518;48.842;8.926;2023-02-25T04:37:48;4.40;;;1.67;;
1400;SDS011;46518;48.842;8.926;2023-02-25T04:40:18;2.42;;;1.52;;
1400;SDS011;46518;48.842;8.926;2023-02-25T04:42:48;2.35;;;1.20;;
1400;SDS011;46518;48.842;8.926;2023-02-25T04:45:17;2.38;;;1.30;;
1400;SDS011;46518;48.842;8.926;2023-02-25T04:47:45;4.03;;;1.65;;
1400;SDS011;46518;48.842;8.926;2023-02-25T04:50:14;2.72;;;1.33;;
1400;SDS011;46518;48.842;8.926;2023-02-25T04:52:43;1.52;;;1.42;;
1400;SDS011;46518;48.842;8.926;2023-02-25T04:55:11;3.38;;;1.48;;
1400;SDS011;46518;48.842;8.926;2023-02-25T04:57:40;5.20;;;1.30;;
1400;SDS011;46518;48.842;8.926;2023-02-25T05:00:11;3.83;;;1.42;;
1400;SDS011;46518;48.842;8.926;2023-02-25T05:02:46;2.47;;;1.33;;
1400;SDS011;46518;48.842;8.926;2023-02-25T05:05:15;4.50;;;1.30;;
1400;SDS011;46518;48.842;8.926;2023-02-25T05:07:45;7.00;;;1.63;;
1400;SDS011;46518;48.842;8.926;2023-02-25T05:10:14;1.67;;;1.52;;
1400;SDS011;46518;48.842;8.926;2023-02-25T05:12:43;2.17;;;1.30;;
1400;SDS011;46518;48.842;8.926;2023-02-25T05:15:11;3.22;;;1.17;;
1400;SDS011;46518;48.842;8.926;2023-02-25T05:17:40;5.97;;;1.60;;
1400;SDS011;46518;48.842;8.926;2023-02-25T05:20:09;2.17;;;1.73;;
1400;SDS011;46518;48.842;8.926;2023-02-25T05:22:39;2.47;;;1.40;;
1400;SDS011;46518;48.842;8.926;2023-02-25T05:25:09;3.22;;;1.50;;
1400;SDS011;46518;48.842;8.926;2023-02-25T05:27:38;4.82;;;1.35;;
1400;SDS011;46518;48.842;8.926;2023-02-25T05:30:06;2.08;;;1.30;;
1400;SDS011;46518;48.842;8.926;2023-02-25T05:32:36;2.05;;;1.20;;
1400;SDS011;46518;48.842;8.926;2023-02-25T05:35:06;4.20;;;1.42;;
1400;SDS011;46518;48.842;8.926;2023-02-25T05:37:35;4.53;;;1.58;;
1400;SDS011;46518;48.842;8.926;2023-02-25T05:40:04;2.58;;;1.50;;
1400;SDS011;46518;48.842;8.926;2023-02-25T05:42:36;2.72;;;1.90;;
1400;SDS011;46518;48.842;8.926;2023-02-25T05:45:04;8.40;;;2.17;;
1400;SDS011;46518;48.842;8.926;2023-02-25T05:47:34;2.30;;;1.30;;
1400;SDS011;46518;48.842;8.926;2023-02-25T05:50:03;5.22;;;1.42;;
1400;SDS011;46518;48.842;8.926;2023-02-25T05:52:31;3.88;;;2.00;;
1400;SDS011;46518;48.842;8.926;2023-02-25T05:54:59;2.65;;;1.50;;
1400;SDS011;46518;48.842;8.926;2023-02-25T05:57:28;2.72;;;1.30;;
1400;SDS011;46518;48.842;8.926;2023-02-25T05:59:58;3.78;;;1.40;;
1400;SDS011;46518;48.842;8.926;2023-02-25T06:02:27;2.28;;;1.83;;
1400;SDS011;46518;48.842;8.926;2023-02-25T06:04:55;4.95;;;1.67;;
1400;SDS011;46518;48.842;8.926;2023-02-25T06:07:23;4.90;;;1.80;;
1400;SDS011;46518;48.842;8.926;2023-02-25T06:09:51;2.67;;;1.35;;
1400;SDS011;46518;48.842;8.926;2023-02-25T06:12:20;6.57;;;1.80;;
1400;SDS011;46518;48.842;8.926;2023-02-25T06:14:48;4.05;;;1.60;;
1400;SDS011;46518;48.842;8.926;2023-02-25T06:17:18;3.17;;;1.23;;
1400;SDS011;46518;48.842;8.926;2023-02-25T06:19:46;2.10;;;1.40;;
1400;SDS011;46518;48.842;8.926;2023-02-25T06:22:14;2.15;;;0.95;;
1400;SDS011;46518;48.842;8.926;2023-02-25T06:24:42;9.27;;;1.67;;
1400;SDS011;46518;48.842;8.926;2023-02-25T06:27:11;3.53;;;1.35;;
1400;SDS011;46518;48.842;8.926;2023-02-25T06:29:40;4.35;;;1.30;;
1400;SDS011;46518;48.842;8.926;2023-02-25T06:32:09;2.00;;;1.00;;
1400;SDS011;46518;48.842;8.926;2023-02-25T06:34:39;3.00;;;1.55;;
1400;SDS011;46518;48.842;8.926;2023-02-25T06:37:07;3.22;;;1.50;;
1400;SDS011;46518;48.842;8.926;2023-02-25T06:39:36;5.53;;;1.60;;
1400;SDS011;46518;48.842;8.926;2023-02-25T06:42:08;3.33;;;1.70;;
1400;SDS011;46518;48.842;8.926;2023-02-25T06:44:37;4.03;;;1.77;;
1400;SDS011;46518;48.842;8.926;2023-02-25T06:47:05;3.00;;;1.40;;
1400;SDS011;46518;48.842;8.926;2023-02-25T06:49:33;4.22;;;1.17;;
1400;SDS011;46518;48.842;8.926;2023-02-25T06:52:03;5.43;;;1.42;;
1400;SDS011;46518;48.842;8.926;2023-02-25T06:54:31;3.35;;;1.70;;
1400;SDS011;46518;48.842;8.926;2023-02-25T06:56:59;9.38;;;2.15;;
1400;SDS011;46518;48.842;8.926;2023-02-25T06:59:27;5.15;;;1.70;;
1400;SDS011;46518;48.842;8.926;2023-02-25T07:01:55;3.60;;;1.40;;
1400;SDS011;46518;48.842;8.926;2023-02-25T07:04:23;3.70;;;2.05;;
1400;SDS011;46518;48.842;8.926;2023-02-25T07:06:52;1.63;;;1.35;;
1400;SDS011;46518;48.842;8.926;2023-02-25T07:09:21;5.50;;;1.70;;
1400;SDS011;46518;48.842;8.926;2023-02-25T07:11:50;2.13;;;1.83;;
1400;SDS011;46518;48.842;8.926;2023-02-25T07:14:18;2.90;;;1.27;;
1400;SDS011;46518;48.842;8.926;2023-02-25T07:16:46;2.83;;;1.20;;
1400;SDS011;46518;48.842;8.926;2023-02-25T07:19:15;2.92;;;1.35;;
1400;SDS011;46518;48.842;8.926;2023-02-25T07:21:43;3.28;;;1.23;;
1400;SDS011;46518;48.842;8.926;2023-02-25T07:24:12;2.55;;;1.40;;
1400;SDS011;46518;48.842;8.926;2023-02-25T07:26:41;2.90;;;1.40;;
1400;SDS011;46518;48.842;8.926;2023-02-25T07:29:10;3.88;;;1.20;;
1400;SDS011;46518;48.842;8.926;2023-02-25T07:31:39;2.17;;;1.30;;
1400;SDS011;46518;48.842;8.926;2023-02-25T07:34:08;4.30;;;1.42;;
1400;SDS011;46518;48.842;8.926;2023-02-25T07:36:36;2.88;;;1.30;;
1400;SDS011;46518;48.842;8.926;2023-02-25T07:39:05;1.75;;;0.90;;
1400;SDS011;46518;48.842;8.926;2023-02-25T07:41:35;2.75;;;1.60;;
1400;SDS011;46518;48.842;8.926;2023-02-25T07:44:06;3.70;;;1.55;;
1400;SDS011;46518;48.842;8.926;2023-02-25T07:46:35;2.60;;;1.30;;
1400;SDS011;46518;48.842;8.926;2023-02-25T07:49:04;3.53;;;1.65;;
1400;SDS011;46518;48.842;8.926;2023-02-25T07:51:32;1.85;;;1.25;;
1400;SDS011;46518;48.842;8.926;2023-02-25T07:54:00;5.95;;;1.70;;
1400;SDS011;46518;48.842;8.926;2023-02-25T07:56:29;2.85;;;1.60;;
1400;SDS011;46518;48.842;8.926;2023-02-25T07:58:58;2.80;;;1.52;;
1400;SDS011;46518;48.842;8.926;2023-02-25T08:01:29;3.58;;;1.38;;
1400;SDS011;46518;48.842;8.926;2023-02-25T08:04:01;4.05;;;1.98;;
1400;SDS011;46518;48.842;8.926;2023-02-25T08:06:33;3.10;;;1.52;;
1400;SDS011;46518;48.842;8.926;2023-02-25T08:09:03;4.40;;;1.80;;
1400;SDS011;46518;48.842;8.926;2023-02-25T08:11:32;2.38;;;0.98;;
1400;SDS011;46518;48.842;8.926;2023-02-25T08:14:00;4.78;;;2.33;;
1400;SDS011;46518;48.842;8.926;2023-02-25T08:16:30;2.08;;;1.88;;
1400;SDS011;46518;48.842;8.926;2023-02-25T08:18:58;3.05;;;1.88;;
1400;SDS011;46518;48.842;8.926;2023-02-25T08:21:27;4.15;;;1.35;;
1400;SDS011;46518;48.842;8.926;2023-02-25T08:23:57;2.88;;;1.20;;
1400;SDS011;46518;48.842;8.926;2023-02-25T08:30:37;2.63;;;1.42;;
1400;SDS011;46518;48.842;8.926;2023-02-25T08:33:07;1.80;;;1.50;;
1400;SDS011;46518;48.842;8.926;2023-02-25T08:35:35;2.92;;;1.60;;
1400;SDS011;46518;48.842;8.926;2023-02-25T08:38:03;2.65;;;1.35;;
1400;SDS011;46518;48.842;8.926;2023-02-25T08:40:31;4.05;;;2.58;;
1400;SDS011;46518;48.842;8.926;2023-02-25T08:42:59;3.15;;;1.65;;
1400;SDS011;46518;48.842;8.926;2023-02-25T08:45:28;3.58;;;1.60;;
1400;SDS011;46518;48.842;8.926;2023-02-25T08:47:56;5.00;;;1.85;;
1400;SDS011;46518;48.842;8.926;2023-02-25T08:50:25;5.82;;;1.75;;
1400;SDS011;46518;48.842;8.926;2023-02-25T08:52:55;2.80;;;1.20;;
1400;SDS011;46518;48.842;8.926;2023-02-25T08:55:24;3.97;;;1.30;;
1400;SDS011;46518;48.842;8.926;2023-02-25T08:58:07;3.90;;;1.98;;
1400;SDS011;46518;48.842;8.926;2023-02-25T09:00:50;1.85;;;1.30;;
1400;SDS011;46518;48.842;8.926;2023-02-25T09:03:22;3.80;;;1.60;;
1400;SDS011;46518;48.842;8.926;2023-02-25T09:05:55;1.45;;;1.17;;
1400;SDS011;46518;48.842;8.926;2023-02-25T09:08:28;5.35;;;1.40;;
1400;SDS011;46518;48.842;8.926;2023-02-25T09:10:59;2.72;;;1.52;;
1400;SDS011;46518;48.842;8.926;2023-02-25T09:17:22;3.55;;;1.15;;
1400;SDS011;46518;48.842;8.926;2023-02-25T09:24:28;2.30;;;1.02;;
1400;SDS011;46518;48.842;8.926;2023-02-25T09:32:30;0.80;;;0.80;;
1400;SDS011;46518;48.842;8.926;2023-02-25T09:42:55;1.63;;;1.10;;
1400;SDS011;46518;48.842;8.926;2023-02-25T09:52:08;1.08;;;0.88;;
1400;SDS011;46518;48.842;8.926;2023-02-25T09:58:37;2.25;;;0.93;;
1400;SDS011;46518;48.842;8.926;2023-02-25T10:08:09;4.60;;;1.00;;
1400;SDS011;46518;48.842;8.926;2023-02-25T10:12:18;3.17;;;1.35;;
1400;SDS011;46518;48.842;8.926;2023-02-25T10:21:49;3.13;;;1.48;;
1400;SDS011;46518;48.842;8.926;2023-02-25T10:25:41;10.48;;;1.40;;
1400;SDS011;46518;48.842;8.926;2023-02-25T10:28:31;2.45;;;1.35;;
1400;SDS011;46518;48.842;8.926;2023-02-25T10:32:53;2.95;;;1.50;;
1400;SDS011;46518;48.842;8.926;2023-02-25T10:36:45;4.65;;;1.25;;
1400;SDS011;46518;48.842;8.926;2023-02-25T10:39:35;1.30;;;1.17;;
1400;SDS011;46518;48.842;8.926;2023-02-25T10:42:34;0.85;;;0.70;;
1400;SDS011;46518;48.842;8.926;2023-02-25T10:49:13;1.92;;;1.40;;
1400;SDS011;46518;48.842;8.926;2023-02-25T10:52:53;5.57;;;1.35;;
1400;SDS011;46518;48.842;8.926;2023-02-25T10:55:56;3.65;;;1.63;;
1400;SDS011;46518;48.842;8.926;2023-02-25T10:59:06;5.10;;;1.35;;
1400;SDS011;46518;48.842;8.926;2023-02-25T11:10:11;4.03;;;1.00;;
1400;SDS011;46518;48.842;8.926;2023-02-25T11:13:03;3.08;;;0.85;;
1400;SDS011;46518;48.842;8.926;2023-02-25T11:15:46;1.10;;;0.90;;
1400;SDS011;46518;48.842;8.926;2023-02-25T11:18:43;1.85;;;1.10;;
1400;SDS011;46518;48.842;8.926;2023-02-25T11:21:31;3.72;;;1.80;;
1400;SDS011;46518;48.842;8.926;2023-02-25T11:27:32;1.90;;;1.13;;
1400;SDS011;46518;48.842;8.926;2023-02-25T11:30:17;1.20;;;1.10;;
1400;SDS011;46518;48.842;8.926;2023-02-25T11:32:55;1.48;;;1.10;;
1400;SDS011;46518;48.842;8.926;2023-02-25T11:35:32;1.65;;;1.25;;
1400;SDS011;46518;48.842;8.926;2023-02-25T11:38:14;1.33;;;1.10;;
1400;SDS011;46518;48.842;8.926;2023-02-25T11:41:00;2.35;;;1.73;;
1400;SDS011;46518;48.842;8.926;2023-02-25T11:43:45;2.15;;;1.65;;
1400;SDS011;46518;48.842;8.926;2023-02-25T11:46:57;1.92;;;1.10;;
1400;SDS011;46518;48.842;8.926;2023-02-25T11:50:03;7.05;;;1.77;;
1400;SDS011;46518;48.842;8.926;2023-02-25T11:53:14;7.63;;;1.88;;
1400;SDS011;46518;48.842;8.926;2023-02-25T11:56:09;3.95;;;1.60;;
1400;SDS011;46518;48.842;8.926;2023-02-25T11:59:04;6.57;;;1.80;;
1400;SDS011;46518;48.842;8.926;2023-02-25T12:15:20;2.38;;;1.83;;
1400;SDS011;46518;48.842;8.926;2023-02-25T12:22:05;3.75;;;1.95;;
1400;SDS011;46518;48.842;8.926;2023-02-25T12:26:04;4.88;;;2.33;;
1400;SDS011;46518;48.842;8.926;2023-02-25T12:28:47;2.47;;;1.80;;
1400;SDS011;46518;48.842;8.926;2023-02-25T12:31:47;4.53;;;1.75;;
1400;SDS011;46518;48.842;8.926;2023-02-25T12:34:48;4.95;;;2.00;;
1400;SDS011;46518;48.842;8.926;2023-02-25T12:37:53;2.47;;;2.10;;
1400;SDS011;46518;48.842;8.926;2023-02-25T12:41:02;1.75;;;1.63;;
1400;SDS011;46518;48.842;8.926;2023-02-25T12:43:49;3.80;;;1.45;;
1400;SDS011;46518;48.842;8.926;2023-02-25T12:46:40;6.78;;;1.83;;
1400;SDS011;46518;48.842;8.926;2023-02-25T12:49:32;4.50;;;1.40;;
1400;SDS011;46518;48.842;8.926;2023-02-25T12:52:24;3.70;;;2.05;;
1400;SDS011;46518;48.842;8.926;2023-02-25T12:58:12;3.92;;;1.90;;
1400;SDS011;46518;48.842;8.926;2023-02-25T13:01:11;3.97;;;2.38;;
1400;SDS011;46518;48.842;8.926;2023-02-25T13:10:40;7.28;;;2.00;;
1400;SDS011;46518;48.842;8.926;2023-02-25T13:13:27;3.63;;;2.20;;
1400;SDS011;46518;48.842;8.926;2023-02-25T13:16:31;5.05;;;3.75;;
1400;SDS011;46518;48.842;8.926;2023-02-25T13:19:28;5.65;;;2.00;;
1400;SDS011;46518;48.842;8.926;2023-02-25T13:22:38;4.15;;;2.10;;
1400;SDS011;46518;48.842;8.926;2023-02-25T13:26:29;7.55;;;2.63;;
1400;SDS011;46518;48.842;8.926;2023-02-25T13:30:20;2.75;;;1.48;;
1400;SDS011;46518;48.842;8.926;2023-02-25T13:33:11;6.53;;;2.15;;
1400;SDS011;46518;48.842;8.926;2023-02-25T13:35:55;5.78;;;2.35;;
1400;SDS011;46518;48.842;8.926;2023-02-25T13:38:57;2.88;;;1.40;;
1400;SDS011;46518;48.842;8.926;2023-02-25T13:41:47;3.72;;;1.20;;
1400;SDS011;46518;48.842;8.926;2023-02-25T13:44:35;3.00;;;1.20;;
1400;SDS011;46518;48.842;8.926;2023-02-25T13:47:47;1.98;;;1.10;;
1400;SDS011;46518;48.842;8.926;2023-02-25T13:50:46;4.30;;;1.35;;
1400;SDS011;46518;48.842;8.926;2023-02-25T13:53:39;2.75;;;1.60;;
1400;SDS011;46518;48.842;8.926;2023-02-25T13:59:40;2.38;;;1.38;;
1400;SDS011;46518;48.842;8.926;2023-02-25T14:02:35;2.63;;;1.60;;
1400;SDS011;46518;48.842;8.926;2023-02-25T14:08:46;1.55;;;1.30;;
1400;SDS011;46518;48.842;8.926;2023-02-25T14:11:47;5.88;;;1.58;;
1400;SDS011;46518;48.842;8.926;2023-02-25T14:14:51;4.57;;;1.70;;
1400;SDS011;46518;48.842;8.926;2023-02-25T14:17:43;3.78;;;1.42;;
1400;SDS011;46518;48.842;8.926;2023-02-25T14:20:26;3.22;;;1.58;;
1400;SDS011;46518;48.842;8.926;2023-02-25T14:23:24;6.07;;;1.60;;
1400;SDS011;46518;48.842;8.926;2023-02-25T14:26:17;4.43;;;1.48;;
1400;SDS011;46518;48.842;8.926;2023-02-25T14:29:01;4.13;;;1.13;;
1400;SDS011;46518;48.842;8.926;2023-02-25T14:31:49;2.85;;;1.33;;
1400;SDS011;46518;48.842;8.926;2023-02-25T14:34:42;6.72;;;1.67;;
1400;SDS011;46518;48.842;8.926;2023-02-25T14:37:29;4.00;;;1.77;;
1400;SDS011;46518;48.842;8.926;2023-02-25T14:40:30;3.30;;;1.45;;
1400;SDS011;46518;48.842;8.926;2023-02-25T14:43:23;3.33;;;1.95;;
1400;SDS011;46518;48.842;8.926;2023-02-25T14:46:09;3.85;;;1.27;;
1400;SDS011;46518;48.842;8.926;2023-02-25T14:49:05;4.10;;;1.60;;
1400;SDS011;46518;48.842;8.926;2023-02-25T14:51:57;5.03;;;1.67;;
1400;SDS011;46518;48.842;8.926;2023-02-25T14:58:11;3.78;;;1.70;;
1400;SDS011;46518;48.842;8.926;2023-02-25T15:04:40;6.68;;;1.45;;
1400;SDS011;46518;48.842;8.926;2023-02-25T15:07:42;5.57;;;1.85;;
1400;SDS011;46518;48.842;8.926;2023-02-25T15:10:32;7.95;;;2.97;;
1400;SDS011;46518;48.842;8.926;2023-02-25T15:20:13;2.97;;;1.55;;
1400;SDS011;46518;48.842;8.926;2023-02-25T15:23:10;3.55;;;1.98;;
1400;SDS011;46518;48.842;8.926;2023-02-25T15:51:37;4.00;;;1.55;;
1400;SDS011;46518;48.842;8.926;2023-02-25T17:20:53;6.75;;;4.35;;
1400;SDS011;46518;48.842;8.926;2023-02-25T17:25:24;6.28;;;3.00;;
1400;SDS011;46518;48.842;8.926;2023-02-25T17:35:15;10.05;;;3.03;;
1400;SDS011;46518;48.842;8.926;2023-02-25T17:50:10;6.97;;;4.00;;
1400;SDS011;46518;48.842;8.926;2023-02-25T17:52:57;3.75;;;3.28;;
1400;SDS011;46518;48.842;8.926;2023-02-25T17:55:32;5.40;;;4.90;;
1400;SDS011;46518;48.842;8.926;2023-02-25T18:01:17;6.53;;;5.40;;
1400;SDS011;46518;48.842;8.926;2023-02-25T18:16:34;5.53;;;3.30;;
1400;SDS011;46518;48.842;8.926;2023-02-25T18:19:26;5.72;;;3.35;;
1400;SDS011;46518;48.842;8.926;2023-02-25T18:22:22;4.30;;;3.17;;
1400;SDS011;46518;48.842;8.926;2023-02-25T18:25:27;5.25;;;3.75;;
1400;SDS011;46518;48.842;8.926;2023-02-25T18:28:12;3.00;;;2.60;;
1400;SDS011;46518;48.842;8.926;2023-02-25T18:30:52;4.80;;;2.90;;
1400;SDS011;46518;48.842;8.926;2023-02-25T18:49:45;4.03;;;2.63;;
1400;SDS011;46518;48.842;8.926;2023-02-25T18:52:18;3.97;;;2.78;;
1400;SDS011;46518;48.842;8.926;2023-02-25T18:54:57;4.50;;;3.15;;
1400;SDS011;46518;48.842;8.926;2023-02-25T19:04:04;4.40;;;2.97;;
1400;SDS011;46518;48.842;8.926;2023-02-25T19:07:17;2.88;;;2.58;;
1400;SDS011;46518;48.842;8.926;2023-02-25T19:10:04;5.72;;;3.40;;
1400;SDS011;46518;48.842;8.926;2023-02-25T19:13:13;6.05;;;3.38;;
1400;SDS011;46518;48.842;8.926;2023-02-25T19:16:02;6.00;;;2.70;;
1400;SDS011;46518;48.842;8.926;2023-02-25T19:22:39;6.88;;;2.58;;
1400;SDS011;46518;48.842;8.926;2023-02-25T19:25:38;8.88;;;3.00;;
1400;SDS011;46518;48.842;8.926;2023-02-25T19:29:59;2.63;;;2.35;;
1400;SDS011;46518;48.842;8.926;2023-02-25T19:32:46;2.22;;;2.03;;
1400;SDS011;46518;48.842;8.926;2023-02-25T19:43:40;3.80;;;2.80;;
1400;SDS011;46518;48.842;8.926;2023-02-25T19:49:25;4.25;;;2.30;;
1400;SDS011;46518;48.842;8.926;2023-02-25T19:52:03;5.45;;;2.35;;
1400;SDS011;46518;48.842;8.926;2023-02-25T19:54:53;2.95;;;2.65;;
1400;SDS011;46518;48.842;8.926;2023-02-25T19:57:35;2.85;;;2.17;;
1400;SDS011;46518;48.842;8.926;2023-02-25T20:00:30;4.90;;;2.30;;
1400;SDS011;46518;48.842;8.926;2023-02-25T20:03:43;6.00;;;3.00;;
1400;SDS011;46518;48.842;8.926;2023-02-25T20:06:28;7.88;;;2.00;;
1400;SDS011;46518;48.842;8.926;2023-02-25T20:09:08;2.63;;;1.92;;
1400;SDS011;46518;48.842;8.926;2023-02-25T20:11:45;4.15;;;1.67;;
1400;SDS011;46518;48.842;8.926;2023-02-25T20:14:21;3.65;;;2.47;;
1400;SDS011;46518;48.842;8.926;2023-02-25T20:17:16;2.50;;;2.30;;
1400;SDS011;46518;48.842;8.926;2023-02-25T20:21:16;4.60;;;2.70;;
1400;SDS011;46518;48.842;8.926;2023-02-25T20:24:02;5.80;;;4.05;;
1400;SDS011;46518;48.842;8.926;2023-02-25T20:26:48;3.17;;;2.28;;
1400;SDS011;46518;48.842;8.926;2023-02-25T20:36:21;5.63;;;3.30;;
1400;SDS011;46518;48.842;8.926;2023-02-25T20:42:55;10.27;;;5.85;;
1400;SDS011;46518;48.842;8.926;2023-02-25T20:45:32;4.43;;;2.55;;
1400;SDS011;46518;48.842;8.926;2023-02-25T20:48:15;3.65;;;2.63;;
1400;SDS011;46518;48.842;8.926;2023-02-25T20:51:11;4.20;;;3.78;;
1400;SDS011;46518;48.842;8.926;2023-02-25T20:57:28;4.32;;;2.83;;
1400;SDS011;46518;48.842;8.926;2023-02-25T21:00:20;6.63;;;2.88;;
1400;SDS011;46518;48.842;8.926;2023-02-25T21:03:24;3.60;;;2.65;;
1400;SDS011;46518;48.842;8.926;2023-02-25T21:36:01;3.30;;;1.98;;
1400;SDS011;46518;48.842;8.926;2023-02-25T21:38:32;2.95;;;1.83;;
1400;SDS011;46518;48.842;8.926;2023-02-25T21:41:05;5.30;;;2.95;;
1400;SDS011;46518;48.842;8.926;2023-02-25T21:43:39;2.88;;;2.28;;
1400;SDS011;46518;48.842;8.926;2023-02-25T21:46:09;3.88;;;2.65;;
1400;SDS011;46518;48.842;8.926;2023-02-25T21:48:40;3.25;;;2.03;;
1400;SDS011;46518;48.842;8.926;2023-02-25T21:51:14;4.60;;;2.60;;
1400;SDS011;46518;48.842;8.926;2023-02-25T21:53:46;3.88;;;3.38;;
1400;SDS011;46518;48.842;8.926;2023-02-25T21:56:16;4.25;;;3.25;;
1400;SDS011;46518;48.842;8.926;2023-02-25T21:58:45;2.70;;;2.35;;
1400;SDS011;46518;48.842;8.926;2023-02-25T22:01:16;2.35;;;2.15;;
1400;SDS011;46518;48.842;8.926;2023-02-25T22:03:47;8.45;;;4.68;;
1400;SDS011;46518;48.842;8.926;2023-02-25T22:06:21;6.45;;;2.40;;
1400;SDS011;46518;48.842;8.926;2023-02-25T22:08:54;2.08;;;1.77;;
1400;SDS011;46518;48.842;8.926;2023-02-25T22:11:25;2.22;;;1.92;;
1400;SDS011;46518;48.842;8.926;2023-02-25T22:13:57;2.42;;;1.98;;
1400;SDS011;46518;48.842;8.926;2023-02-25T22:16:27;2.75;;;2.40;;
1400;SDS011;46518;48.842;8.926;2023-02-25T22:18:56;3.50;;;3.17;;
1400;SDS011;46518;48.842;8.926;2023-02-25T22:21:28;3.33;;;3.03;;
1400;SDS011;46518;48.842;8.926;2023-02-25T22:24:00;3.58;;;2.33;;
1400;SDS011;46518;48.842;8.926;2023-02-25T22:26:32;5.97;;;2.65;;
1400;SDS011;46518;48.842;8.926;2023-02-25T22:29:03;3.47;;;2.30;;
1400;SDS011;46518;48.842;8.926;2023-02-25T22:31:34;6.97;;;2.70;;
1400;SDS011;46518;48.842;8.926;2023-02-25T22:34:04;2.03;;;1.70;;